Terminal Aerodrome Forecast
Issued by NWS

Home | Current Version | Previous Version | Graphics & Text | Print | Product List | Glossary On
Versions: 1 2 3 4 5 6 7 8 9 10 11 12
966
FTUS43 KGRB 162320
TAFCWA
TAF
KCWA 162320Z 1700/1724 21006KT P6SM SCT250
     FM170300 21008KT P6SM SCT250 WS010/24040KT
     FM171000 25005KT P6SM SKC
     FM171900 21008KT P6SM SKC=

USA.gov is the U.S. government's official web portal to all federal, state and local government web resources and services.